Aérodrome :
LOGIN :

S'inscrire | Disclaimer

   EN    FR    IT 

 










Légende :    VFR   VFR Marginal   IFR   IFR Intensif   IFR Très Intensif
Visi : 
Plafond : 
>= 8 km
>= 3000ft
5 à 8 km
1000 à 3000 ft
1500m à 5 km
500 à 1000 ft
800 à 1500m
200 à 500 ft
< 800m
< 200 ft
Symboles :   Orages  Brouillard  Fortes neiges  Fortes précipitations  Vent > 20 kt
SIGMETs :   Divers  Orages  Givrage  Turbulence  Onde Orograph.  Cendres Volcan.






- Altitude de l'aérodrome : 93 ft
- Code IATA : HDF


EDAH - Heringsdorf

DERNIER METAR :
  • 201450Z 05006KT 010V070 CAVOK 19/10 Q1020

METARs EXPIRÉS :
  • 201420Z VRB03KT CAVOK 20/10 Q1020
  • 201350Z 06005KT 020V100 CAVOK 20/10 Q1020
  • 201320Z 14006KT CAVOK 20/06 Q1021
  • 201250Z 14006KT 120V190 CAVOK 20/05 Q1021
  • 201220Z 13007KT 110V170 CAVOK 20/06 Q1021

TAF TAF EDAH
Valide du 20 à 15h jusqu'au 21 à 00h UTC


201400Z 2015/2024 07004KT CAVOK



MET'MAP, la Météo Aéronautique d'un coup d'oeil ! - Copyright ORBIFLY Décembre 2007 - Disclaimer

ORBIFLY MET'MAP TEAM :

Programmation & Développement : Alexandra Zaïnal
Sur une idée originale de : Baudouin d'Aumeries
Assistance à la programmation : Marc-Olivier Méhu
Soutien technique & logistique : Manuel Goepfert

Contact : metmap@orbifly.com




SOURCES & CREDITS :

   NOAA